Aurora, CO

2:57 PM MDT on August 04, 2015 (GMT -0600)
Denver | | Change Station
CLOSE
Current Station
Airport
Location: Denver,
Elevation: 5430 ft
Nearby Weather Stations

Elev 5430 ft 39.85 °N, 104.66 °W | Updated 4 minutes ago

Partly Cloudy
Partly Cloudy
90 °F
Feels Like 90 °F
N
9
Wind Variable Wind from WSW
Gusts 20 mph

Today
High -- | Low -- °F
--% Chance of Precip.
Yesterday
High -- | Low -- °F
Precip. -- in
6:00 AM 8:08 PM
Waning Gibbous, 74% visible
Pressure 29.79 in
Visibility 10.0 miles
Clouds Few 10000 ft
Few 22000 ft
Dew Point 36 °F
Humidity 15%
Rainfall 0.00 in
Snow Depth Not available.
UV 9 out of 12
Pollen 7.60 out of 12
Air Quality Not available.
Flu Activity Not available.
METAR KDEN 042053Z 25008G17KT 10SM FEW100 FEW220 32/02 A3004 RMK AO2 SLP087 T03220022 56009

More Conditions Fewer Conditions

Pressure 29.79 in
Visibility 10.0 miles
Clouds Few 10000 ft
Few 22000 ft
Dew Point 36 °F
Humidity 15%
Rainfall 0.00 in
Snow Depth Not available.
UV 9 out of 12
Pollen 7.60 out of 12
Air Quality Not available.
Flu Activity Not available.
METAR KDEN 042053Z 25008G17KT 10SM FEW100 FEW220 32/02 A3004 RMK AO2 SLP087 T03220022 56009

More Conditions Fewer Conditions

10-Day Weather Forecast

×

Almanac

Astronomy

Aug. 04, 2015 Rise Set
Actual Time
Civil Twilight
Nautical Twilight
Astronomical Twilight
Moon
Length of Visible Light
Length of Day
Tomorrow will be .
, % of the Moon is Illuminated

Today's Extremes

State Highs State Lows

Community

WunderPhotos

Upload Photos

1,843,974 photos uploaded!

WunderBlogs® & News

Nearby

Air Quality

  Air Quality AQ Index Pollutant
Not available.

Snow Depth

Station Depth Elevation

Earthquake Activity

City Distance Mag. Time & Date
Minimum magnitude displayed is 2.5.

Coastal Water Temperatures

Place Temperature

Stations

Nearby Weather Stations

Station Location Temp. Windchill Dew Point Humidity Wind Precip. Elev Updated Type